createdAt,value
2022-12-20T00:00:11.995Z,101262.69
2022-12-20T00:03:13.655Z,101263.56
2022-12-20T00:06:15.349Z,101274.03
2022-12-20T00:09:16.862Z,101273.16
2022-12-20T00:12:18.423Z,101265.31
2022-12-20T00:15:19.921Z,101261.81
2022-12-20T00:18:21.342Z,101254.81
2022-12-20T00:21:23.459Z,101257.41
2022-12-20T00:24:26.483Z,101249.53
2022-12-20T00:27:28.158Z,101261.84
2022-12-20T00:30:29.805Z,101253.06
2022-12-20T00:33:32.147Z,101270.56
2022-12-20T00:36:33.658Z,101250.47
2022-12-20T00:39:35.185Z,101253.06
2022-12-20T00:42:36.684Z,101255.66
2022-12-20T00:45:39.766Z,101244.25
2022-12-20T00:48:41.702Z,101228.41
2022-12-20T00:51:43.448Z,101223.22
2022-12-20T00:54:44.967Z,101219.72
2022-12-20T00:57:46.471Z,101225.84
2022-12-20T01:00:55.584Z,101201.38
2022-12-20T01:03:59.111Z,101218.78
2022-12-20T01:07:00.633Z,101209.16
2022-12-20T01:10:02.099Z,101203.88
2022-12-20T01:13:03.989Z,101203.84
2022-12-20T01:16:11.428Z,101186.38
2022-12-20T01:19:14.881Z,101181.16
2022-12-20T01:22:16.412Z,101193.41
2022-12-20T01:25:17.887Z,101189.97
2022-12-20T01:28:19.475Z,101190.00
2022-12-20T01:31:21.125Z,101176.03
2022-12-20T01:34:22.578Z,101184.78
2022-12-20T01:37:24.009Z,101193.47
2022-12-20T01:40:25.553Z,101194.28
2022-12-20T01:43:52.126Z,101183.84
2022-12-20T01:46:54.615Z,101178.53
2022-12-20T01:49:58.886Z,101171.53
2022-12-20T01:53:00.659Z,101157.56
2022-12-20T01:56:05.495Z,101153.19
2022-12-20T01:59:08.068Z,101164.56
2022-12-20T02:02:12.130Z,101159.28
2022-12-20T02:05:14.140Z,101154.06
2022-12-20T02:08:19.316Z,101162.75
2022-12-20T02:11:44.830Z,101154.91
2022-12-20T02:15:06.043Z,101160.94
2022-12-20T02:18:16.536Z,101154.81
2022-12-20T02:21:39.386Z,101165.28
2022-12-20T02:25:10.799Z,101153.00
2022-12-20T02:28:37.287Z,101171.31
2022-12-20T02:31:47.699Z,101170.50
2022-12-20T02:34:51.222Z,101168.63
2022-12-20T02:37:58.980Z,101159.00
2022-12-20T02:41:27.059Z,101158.06
2022-12-20T02:44:32.379Z,101153.66
2022-12-20T02:47:38.303Z,101156.34
2022-12-20T02:50:47.555Z,101138.88
2022-12-20T02:53:49.934Z,101138.88
2022-12-20T02:57:06.420Z,101150.25
2022-12-20T03:00:13.483Z,101138.94
2022-12-20T03:03:15.637Z,101137.13
2022-12-20T03:06:17.493Z,101144.16
2022-12-20T03:09:18.959Z,101124.97
2022-12-20T03:12:20.466Z,101136.38
2022-12-20T03:15:22.068Z,101145.94
2022-12-20T03:18:27.310Z,101138.94
2022-12-20T03:21:28.775Z,101136.31
2022-12-20T03:24:30.282Z,101132.00
2022-12-20T03:27:32.081Z,101126.78
2022-12-20T03:30:35.771Z,101123.31
2022-12-20T03:33:37.323Z,101133.81
2022-12-20T03:36:41.798Z,101108.50
2022-12-20T03:39:43.339Z,101114.53
2022-12-20T03:42:45.110Z,101109.28
2022-12-20T03:45:46.519Z,101119.78
2022-12-20T03:48:48.001Z,101110.06
2022-12-20T03:51:50.073Z,101114.34
2022-12-20T03:54:51.850Z,101116.03
2022-12-20T03:58:01.892Z,101110.81
2022-12-20T04:01:26.535Z,101115.16
2022-12-20T04:04:29.781Z,101128.25
2022-12-20T04:07:31.357Z,101123.03
2022-12-20T04:10:33.458Z,101112.47
2022-12-20T04:13:34.911Z,101109.75
2022-12-20T04:16:37.834Z,101107.09
2022-12-20T04:19:40.592Z,101111.53
2022-12-20T04:22:43.350Z,101101.00
2022-12-20T04:26:04.786Z,101098.31
2022-12-20T04:29:09.858Z,101091.31
2022-12-20T04:32:11.994Z,101098.38
2022-12-20T04:35:13.586Z,101096.59
2022-12-20T04:38:18.233Z,101099.97
2022-12-20T04:41:21.448Z,101104.31
2022-12-20T04:44:26.204Z,101098.09
2022-12-20T04:47:28.136Z,101099.81
2022-12-20T04:50:30.350Z,101098.06
2022-12-20T04:53:31.893Z,101087.53
2022-12-20T04:56:33.648Z,101088.44
2022-12-20T04:59:41.905Z,101080.50
2022-12-20T05:02:45.333Z,101072.63
2022-12-20T05:05:50.132Z,101062.94
2022-12-20T05:08:51.714Z,101066.34
2022-12-20T05:11:53.232Z,101061.19
2022-12-20T05:14:54.765Z,101048.94
2022-12-20T05:17:57.180Z,101047.22
2022-12-20T05:21:00.352Z,101049.84
2022-12-20T05:24:02.650Z,101040.28
2022-12-20T05:27:05.562Z,101033.28
2022-12-20T05:30:08.144Z,101028.03
2022-12-20T05:33:09.870Z,101035.06
2022-12-20T05:36:13.157Z,101038.47
2022-12-20T05:39:15.205Z,101033.09
2022-12-20T05:42:19.513Z,101041.84
2022-12-20T05:45:24.661Z,101040.91
2022-12-20T05:48:33.888Z,101040.03
2022-12-20T05:51:35.436Z,101044.47
2022-12-20T05:54:49.864Z,101038.25
2022-12-20T05:57:52.906Z,101035.56
2022-12-20T06:01:05.073Z,101039.91
2022-12-20T06:04:11.184Z,101040.84
2022-12-20T06:07:12.827Z,101032.03
2022-12-20T06:10:15.480Z,101026.78
2022-12-20T06:13:25.250Z,101031.03
2022-12-20T06:16:28.959Z,101019.66
2022-12-20T06:19:32.654Z,101014.56
2022-12-20T06:22:34.690Z,101020.78
2022-12-20T06:25:36.303Z,101018.22
2022-12-20T06:28:38.113Z,101006.84
2022-12-20T06:31:40.545Z,101022.59
2022-12-20T06:34:42.388Z,101015.66
2022-12-20T06:37:44.015Z,101019.19
2022-12-20T06:40:47.522Z,101012.19
2022-12-20T06:43:49.234Z,101027.84
2022-12-20T06:46:50.959Z,101024.41
2022-12-20T06:49:52.859Z,101015.63
2022-12-20T06:52:57.388Z,101019.16
2022-12-20T06:55:59.955Z,101013.81
2022-12-20T06:59:01.606Z,101018.25
2022-12-20T07:02:04.232Z,101015.66
2022-12-20T07:05:07.014Z,101019.06
2022-12-20T07:08:09.086Z,101012.97
2022-12-20T07:11:10.765Z,101006.81
2022-12-20T07:14:12.428Z,101017.25
2022-12-20T07:17:14.053Z,101018.88
2022-12-20T07:20:15.770Z,101022.22
2022-12-20T07:23:17.418Z,101023.06
2022-12-20T07:26:18.988Z,101024.81
2022-12-20T07:29:20.593Z,101026.47
2022-12-20T07:32:22.445Z,101023.88
2022-12-20T07:35:24.203Z,101030.91
2022-12-20T07:38:28.012Z,101023.97
2022-12-20T07:41:30.649Z,101018.69
2022-12-20T07:44:32.296Z,101022.28
2022-12-20T07:47:33.995Z,101022.38
2022-12-20T07:50:35.846Z,101018.88
2022-12-20T07:53:42.202Z,101032.09
2022-12-20T07:56:47.795Z,101013.81
2022-12-20T07:59:56.354Z,101024.34
2022-12-20T08:03:08.668Z,101016.50
2022-12-20T08:06:10.876Z,101019.19
2022-12-20T08:09:14.610Z,101024.41
2022-12-20T08:12:18.887Z,101026.25
2022-12-20T08:15:20.748Z,101027.13
2022-12-20T08:18:22.473Z,101028.06
2022-12-20T08:21:24.177Z,101026.31
2022-12-20T08:24:26.010Z,101028.91
2022-12-20T08:27:27.671Z,101024.50
2022-12-20T08:30:29.921Z,101013.19
2022-12-20T08:33:46.959Z,101026.25
2022-12-20T08:36:51.646Z,101015.72
2022-12-20T08:39:53.298Z,101021.88
2022-12-20T08:42:54.904Z,101019.19
2022-12-20T08:45:56.638Z,101023.47
2022-12-20T08:48:58.233Z,101023.44
2022-12-20T08:51:59.861Z,101022.56
2022-12-20T08:55:02.263Z,101024.25
2022-12-20T08:58:04.089Z,101027.81
2022-12-20T09:01:08.944Z,101025.19
2022-12-20T09:04:20.267Z,101024.44
2022-12-20T09:07:21.928Z,101025.28
2022-12-20T09:10:23.510Z,101024.44
2022-12-20T09:13:25.093Z,101021.88
2022-12-20T09:16:31.822Z,101024.44
2022-12-20T09:19:33.535Z,101026.22
2022-12-20T09:22:35.261Z,101033.09
2022-12-20T09:25:36.818Z,101033.06
2022-12-20T09:28:39.085Z,101034.81
2022-12-20T09:31:42.857Z,101029.47
2022-12-20T09:34:45.784Z,101024.16
2022-12-20T09:37:47.371Z,101029.38
2022-12-20T09:40:54.860Z,101019.69
2022-12-20T09:43:58.736Z,101031.84
2022-12-20T09:47:15.634Z,101023.00
2022-12-20T09:50:19.262Z,101028.19
2022-12-20T09:53:56.699Z,101028.94
2022-12-20T09:57:07.631Z,101025.41
2022-12-20T10:00:18.525Z,101025.41
2022-12-20T10:03:23.367Z,101029.75
2022-12-20T10:06:45.824Z,101028.84
2022-12-20T10:10:31.197Z,101030.59
2022-12-20T10:13:57.174Z,101027.16
2022-12-20T10:17:05.868Z,101024.53
2022-12-20T10:20:15.012Z,101011.38
2022-12-20T10:23:32.507Z,101013.03
2022-12-20T10:26:34.882Z,101020.03
2022-12-20T10:29:36.566Z,100999.03
2022-12-20T10:32:54.400Z,101014.78
2022-12-20T10:36:19.604Z,101008.56
2022-12-20T10:39:41.295Z,101002.41
2022-12-20T10:42:43.709Z,101004.22
2022-12-20T10:45:59.038Z,101008.53
2022-12-20T10:49:22.325Z,101000.63
2022-12-20T10:52:23.926Z,101004.94
2022-12-20T10:55:52.682Z,101002.34
2022-12-20T10:59:04.315Z,101005.91
2022-12-20T11:02:31.767Z,101001.50
2022-12-20T11:05:39.092Z,101000.63
2022-12-20T11:08:49.911Z,100991.81
2022-12-20T11:12:01.699Z,101003.28
2022-12-20T11:15:31.732Z,100996.28
2022-12-20T11:19:10.768Z,100998.91
2022-12-20T11:22:47.871Z,100996.28
2022-12-20T11:26:14.569Z,100991.78
2022-12-20T11:29:53.973Z,100987.41
2022-12-20T11:33:07.846Z,100979.41
2022-12-20T11:36:31.005Z,100983.78
2022-12-20T11:39:59.394Z,100993.50
2022-12-20T11:43:10.014Z,100995.28
2022-12-20T11:46:35.356Z,100979.47
2022-12-20T11:49:52.875Z,100985.47
2022-12-20T11:53:02.279Z,100974.09
2022-12-20T11:56:23.672Z,100965.25
2022-12-20T11:59:34.604Z,100976.56
2022-12-20T12:02:39.423Z,100972.28
2022-12-20T12:05:53.685Z,100975.81
2022-12-20T12:09:16.362Z,100969.59
2022-12-20T12:12:22.319Z,100974.88
2022-12-20T12:15:50.659Z,100971.28
2022-12-20T12:18:52.588Z,100970.44
2022-12-20T12:22:02.876Z,100960.78
2022-12-20T12:25:13.971Z,100966.88
2022-12-20T12:28:19.679Z,100971.25
2022-12-20T12:31:44.587Z,100973.78
2022-12-20T12:35:16.621Z,100968.44
2022-12-20T12:38:48.880Z,100976.28
2022-12-20T12:41:53.545Z,100965.66
2022-12-20T12:44:59.628Z,100962.19
2022-12-20T12:48:08.283Z,100964.00
2022-12-20T12:51:11.785Z,100977.16
2022-12-20T12:54:23.005Z,100969.38
2022-12-20T12:57:24.732Z,100978.16
2022-12-20T13:01:03.082Z,100977.31
2022-12-20T13:04:23.707Z,100980.94
2022-12-20T13:07:25.202Z,100975.66
2022-12-20T13:10:26.791Z,100980.94
2022-12-20T13:13:28.987Z,100975.72
2022-12-20T13:17:09.321Z,100970.41
2022-12-20T13:19:56.371Z,100972.09
2022-12-20T13:23:10.628Z,100973.88
2022-12-20T13:26:54.444Z,100972.13
2022-12-20T13:29:58.739Z,100963.34
2022-12-20T13:33:16.763Z,100966.88
2022-12-20T13:36:34.776Z,100966.75
2022-12-20T13:39:37.457Z,100965.06
2022-12-20T13:42:42.146Z,100963.41
2022-12-20T13:45:47.969Z,100958.09
2022-12-20T13:48:52.147Z,100953.63
2022-12-20T13:52:12.162Z,100953.53
2022-12-20T13:55:25.457Z,100949.16
2022-12-20T13:58:32.907Z,100940.38
2022-12-20T14:01:34.741Z,100950.00
2022-12-20T14:04:42.825Z,100964.81
2022-12-20T14:07:47.923Z,100971.06
2022-12-20T14:10:52.747Z,100975.47
2022-12-20T14:14:04.102Z,100965.81
2022-12-20T14:17:37.392Z,100975.44
2022-12-20T14:20:41.595Z,100959.69
2022-12-20T14:23:46.705Z,100972.00
2022-12-20T14:26:52.517Z,100981.72
2022-12-20T14:29:54.146Z,100967.72
2022-12-20T14:32:56.715Z,100967.72
2022-12-20T14:36:07.057Z,100962.56
2022-12-20T14:39:34.646Z,100973.09
2022-12-20T14:42:39.790Z,100977.44
2022-12-20T14:45:41.968Z,100970.41
2022-12-20T14:48:44.031Z,100961.72
2022-12-20T14:51:47.211Z,100945.06
2022-12-20T14:55:11.055Z,100948.59
2022-12-20T14:58:42.359Z,100946.75
2022-12-20T15:01:44.793Z,100957.41
2022-12-20T15:04:46.704Z,100953.16
2022-12-20T15:07:48.239Z,100956.69
2022-12-20T15:11:08.314Z,100960.19
2022-12-20T15:14:33.056Z,100960.34
2022-12-20T15:17:34.585Z,100964.75
2022-12-20T15:20:36.252Z,100957.75
2022-12-20T15:23:47.301Z,100956.06
2022-12-20T15:26:49.508Z,100953.38
2022-12-20T15:29:51.158Z,100953.44
2022-12-20T15:32:55.998Z,100957.84
2022-12-20T15:35:57.829Z,100963.09
2022-12-20T15:39:15.806Z,100956.06
2022-12-20T15:42:20.215Z,100963.09
2022-12-20T15:45:22.000Z,100956.03
2022-12-20T15:48:23.998Z,100960.44
2022-12-20T15:51:31.120Z,100969.28
2022-12-20T15:54:36.196Z,100967.38
2022-12-20T15:57:37.803Z,100970.13
2022-12-20T16:00:40.617Z,100963.97
2022-12-20T16:03:42.345Z,100965.81
2022-12-20T16:07:02.990Z,100969.22
2022-12-20T16:10:38.428Z,100973.63
2022-12-20T16:13:40.841Z,100972.72
2022-12-20T16:16:46.721Z,100974.50
2022-12-20T16:19:50.503Z,100975.44
2022-12-20T16:22:52.615Z,100972.81
2022-12-20T16:25:54.579Z,100972.00
2022-12-20T16:28:56.563Z,100970.28
2022-12-20T16:31:58.398Z,100970.28
2022-12-20T16:35:00.074Z,100961.53
2022-12-20T16:38:01.962Z,100967.72
2022-12-20T16:41:15.768Z,100961.56
2022-12-20T16:44:17.339Z,100965.16
2022-12-20T16:47:35.726Z,100972.13
2022-12-20T16:50:40.200Z,100980.09
2022-12-20T16:54:09.924Z,100994.09
2022-12-20T16:57:03.474Z,100999.38
2022-12-20T17:00:06.506Z,100987.16
2022-12-20T17:03:08.374Z,100991.47
2022-12-20T17:06:10.655Z,100992.31
2022-12-20T17:09:12.939Z,100988.84
2022-12-20T17:12:22.371Z,100988.03
2022-12-20T17:15:29.827Z,100995.03
2022-12-20T17:18:31.455Z,101000.38
2022-12-20T17:25:02.343Z,100992.38
2022-12-20T17:28:04.300Z,100995.00
2022-12-20T17:31:30.525Z,100995.75
2022-12-20T17:34:32.221Z,100998.34
2022-12-20T17:37:33.986Z,101000.94
2022-12-20T17:40:35.883Z,100996.56
2022-12-20T17:43:37.491Z,101000.91
2022-12-20T17:46:39.098Z,100995.66
2022-12-20T17:49:40.776Z,100988.59
2022-12-20T17:52:42.340Z,100993.91
2022-12-20T17:55:43.898Z,100988.66
2022-12-20T17:58:45.847Z,100998.31
2022-12-20T18:01:47.555Z,101000.97
2022-12-20T18:04:49.320Z,101006.22
2022-12-20T18:07:55.948Z,101015.94
2022-12-20T18:10:58.198Z,101011.53
2022-12-20T18:14:00.889Z,101011.53
2022-12-20T18:17:02.462Z,101008.97
2022-12-20T18:20:06.879Z,101009.72
2022-12-20T18:23:08.352Z,101009.72
2022-12-20T18:26:16.925Z,101018.59
2022-12-20T18:29:18.408Z,101015.06
2022-12-20T18:32:19.998Z,101005.44
2022-12-20T18:35:21.602Z,101010.72
2022-12-20T18:38:23.091Z,101020.31
2022-12-20T18:41:28.122Z,101015.94
2022-12-20T18:44:29.663Z,101014.28
2022-12-20T18:47:31.271Z,101005.50
2022-12-20T18:50:36.311Z,101000.25
2022-12-20T18:53:39.089Z,101001.16
2022-12-20T18:56:40.787Z,100999.41
2022-12-20T18:59:42.252Z,100995.94
2022-12-20T19:02:43.886Z,101009.91
2022-12-20T19:05:45.477Z,101016.06
2022-12-20T19:08:47.672Z,101022.22
2022-12-20T19:11:54.656Z,101024.84
2022-12-20T19:14:58.331Z,101017.88
2022-12-20T19:17:59.767Z,101017.88
2022-12-20T19:21:11.738Z,101007.38
2022-12-20T19:24:13.286Z,101015.25
2022-12-20T19:27:14.805Z,101017.03
2022-12-20T19:30:16.403Z,101015.28
2022-12-20T19:33:17.917Z,101021.38
2022-12-20T19:36:22.177Z,101018.78
2022-12-20T19:39:23.706Z,101019.75
2022-12-20T19:42:25.687Z,101015.38
2022-12-20T19:45:27.525Z,101025.97
2022-12-20T19:48:29.115Z,101034.72
2022-12-20T19:51:31.208Z,101033.00
2022-12-20T19:54:32.796Z,101026.91
2022-12-20T19:57:34.291Z,101039.25
2022-12-20T20:00:35.716Z,101039.22
2022-12-20T20:03:38.016Z,101050.63
2022-12-20T20:06:39.566Z,101052.34
2022-12-20T20:09:41.039Z,101058.50
2022-12-20T20:12:42.486Z,101045.34
2022-12-20T20:15:53.162Z,101053.31
2022-12-20T20:18:54.770Z,101056.94
2022-12-20T20:21:56.346Z,101056.13
2022-12-20T20:24:57.893Z,101049.19
2022-12-20T20:27:59.365Z,101051.88
2022-12-20T20:31:01.522Z,101059.84
2022-12-20T20:34:03.396Z,101058.16
2022-12-20T20:37:04.848Z,101060.88
2022-12-20T20:40:07.200Z,101062.63
2022-12-20T20:43:08.730Z,101080.09
2022-12-20T20:46:13.143Z,101094.06
2022-12-20T20:49:14.709Z,101093.22
2022-12-20T20:52:16.178Z,101091.44
2022-12-20T20:55:17.856Z,101084.47
2022-12-20T20:58:19.355Z,101082.72
2022-12-20T21:01:20.960Z,101079.25
2022-12-20T21:04:22.556Z,101076.66
2022-12-20T21:07:23.998Z,101075.88
2022-12-20T21:10:25.916Z,101082.84
2022-12-20T21:13:27.591Z,101068.00
2022-12-20T21:16:29.203Z,101067.19
2022-12-20T21:19:30.744Z,101075.91
2022-12-20T21:22:32.335Z,101077.72
2022-12-20T21:25:33.974Z,101070.75
2022-12-20T21:28:35.543Z,101072.50
2022-12-20T21:31:37.144Z,101069.91
2022-12-20T21:34:38.693Z,101075.16
2022-12-20T21:37:40.137Z,101077.78
2022-12-20T21:40:41.570Z,101073.41
2022-12-20T21:43:43.524Z,101060.28
2022-12-20T21:46:45.109Z,101058.56
2022-12-20T21:49:46.589Z,101071.75
2022-12-20T21:52:48.044Z,101084.91
2022-12-20T21:55:49.557Z,101079.69
2022-12-20T21:58:51.869Z,101087.56
2022-12-20T22:01:53.652Z,101095.47
2022-12-20T22:04:55.265Z,101103.34
2022-12-20T22:07:56.682Z,101088.50
2022-12-20T22:10:59.158Z,101102.41
2022-12-20T22:14:00.667Z,101092.84
2022-12-20T22:17:02.142Z,101088.47
2022-12-20T22:20:03.865Z,101086.72
2022-12-20T22:23:05.350Z,101085.00
2022-12-20T22:26:09.873Z,101088.50
2022-12-20T22:29:11.483Z,101095.53
2022-12-20T22:32:13.294Z,101085.09
2022-12-20T22:35:20.628Z,101089.53
2022-12-20T22:38:24.081Z,101095.69
2022-12-20T22:41:28.363Z,101090.41
2022-12-20T22:44:29.793Z,101098.28
2022-12-20T22:47:31.328Z,101094.84
2022-12-20T22:50:32.775Z,101099.22
2022-12-20T22:53:35.035Z,101101.00
2022-12-20T22:56:36.514Z,101099.31
2022-12-20T22:59:37.961Z,101099.34
2022-12-20T23:02:40.649Z,101096.72
2022-12-20T23:05:51.506Z,101102.91
2022-12-20T23:08:52.970Z,101098.53
2022-12-20T23:11:54.567Z,101095.91
2022-12-20T23:15:01.706Z,101103.81
2022-12-20T23:18:05.197Z,101114.31
2022-12-20T23:21:06.741Z,101103.00
2022-12-20T23:24:08.415Z,101104.75
2022-12-20T23:27:09.864Z,101097.75
2022-12-20T23:30:13.770Z,101103.00
2022-12-20T23:33:15.182Z,101104.75
2022-12-20T23:36:16.581Z,101110.06
2022-12-20T23:39:18.027Z,101114.50
2022-12-20T23:42:19.685Z,101105.88
2022-12-20T23:45:21.153Z,101099.75
2022-12-20T23:48:22.617Z,101109.38
2022-12-20T23:51:24.131Z,101113.78
2022-12-20T23:54:25.624Z,101106.81
2022-12-20T23:57:30.070Z,101097.22
